Airfield :







YOU CAN JOIN US ON...

 
LOGIN :

Register | Disclaimer

   EN    FR    IT 

 









Legend :    VFR   Marginal VFR   IFR   Intensive IFR   Very Intensive IFR
Visi :
Ceiling :
>= 8 km
>= 3000ft
5 to 8 km
1000 to 3000 ft
1500m to 5 km
500 to 1000 ft
800 to 1500m
200 to 500 ft
< 800m
< 200 ft
Symbols :   Thunderstorms  Fog  Heavy snow  Heavy precipitations  Wind > 20 kt






- Airport Elevation : 71 ft
- IATA code : YBC


CYBC - Baie Comeau

CURRENT METAR :
  • 270300Z AUTO 07013G20KT 9SM CLR M03/M09 A3023 RMK SLP241

EXPIRED METARs :
  • 270200Z AUTO 07008KT 9SM CLR M04/M08 A3023 RMK SLP238
  • 270100Z AUTO 08010KT 9SM CLR M03/M08 A3022 RMK SLP235

TAF TAF CYBC
Valid from the 27 at 02:00 until the 27 at 14:00 UTC


270138Z 2702/2714 08010KT P6SM FEW030
TEMPO 2702/2705 BKN030
BECMG 2702/2704 08012G22KT
FM270500 06015G25KT P6SM FEW012 OVC025
TEMPO 2705/2714 3SM -SN OVC012
BECMG 2710/2712 07020G30KT RMK FCST BASED ON AUTO OBS. NXT FCST BY 270800Z



MET'MAP, your aeronautical weather chart ! - Copyright ORBIFLY December 2007 - Disclaimer

ORBIFLY MET'MAP TEAM :

Programming & Development : Alexandra Zaïnal
Concept & original design : Baudouin d'Aumeries
Assistance for programming : Marc-Olivier Méhu
Technical & hardware support : Manuel Goepfert

Contact : metmap@orbifly.com




SOURCES & CREDITS :

   NOAA